Погода Нкотакотана неделю

Северо-Апская Провинция, Малави

14 - 20 июля
  • 14июля
    Сегодня
    +14°
    +29°
    Ясно и безоблачно
    ВремяПогодаТемператураВлажностьДавлениеВетер, м/сВероятность осадков
    02:00Ясно и безоблачно+16°C81 %723 мм2.0 м/с5 %
    05:00Ясно и безоблачно+14°C82 %723 мм1.7 м/с5 %
    08:00Ясно и безоблачно+21°C65 %725 мм2.6 м/с5 %
    11:00Ясно и безоблачно+26°C50 %726 мм2.4 м/с5 %
    14:00Ясно и безоблачно+28°C36 %724 мм1.9 м/с5 %
    17:00Ясно и безоблачно+27°C52 %723 мм1.6 м/с5 %
    20:00Ясно и безоблачно+23°C67 %724 мм1.6 м/с5 %
    23:00Ясно и безоблачно+17°C67 %723 мм2.6 м/с5 %
  • 15июля
    Понедельник
    +14°
    +29°
    Ясно и безоблачно
    ВремяПогодаТемператураВлажностьДавлениеВетер, м/сВероятность осадков
    02:00Ясно и безоблачно+17°C66 %722 мм2.8 м/с5 %
    05:00Ясно и безоблачно+15°C66 %722 мм2.0 м/с5 %
    08:00Ясно и безоблачно+22°C55 %724 мм2.5 м/с5 %
    11:00Ясно и безоблачно+27°C45 %725 мм2.7 м/с5 %
    14:00Ясно и безоблачно+27°C46 %723 мм1.4 м/с5 %
    17:00Ясно и безоблачно+26°C50 %722 мм0.5 м/с5 %
    20:00Практически безоблачно+22°C66 %723 мм0.5 м/с5 %
    23:00Ясно и безоблачно+16°C72 %722 мм1.0 м/с5 %
  • 16июля
    Вторник
    +16°
    +29°
    Практически безоблачно
    ВремяПогодаТемператураВлажностьДавлениеВетер, м/сВероятность осадков
    02:00Практически безоблачно+16°C73 %722 мм2.5 м/с5 %
    05:00Практически безоблачно+15°C71 %721 мм2.1 м/с5 %
    08:00Ясно и безоблачно+22°C56 %724 мм2.5 м/с5 %
    11:00Практически безоблачно+26°C46 %724 мм3.0 м/с5 %
    14:00Практически безоблачно+28°C43 %723 мм1.1 м/с5 %
    17:00Практически безоблачно+25°C62 %722 мм2.6 м/с5 %
    20:00Ясно и безоблачно+21°C72 %723 мм0.7 м/с5 %
    23:00Ясно и безоблачно+16°C76 %722 мм2.2 м/с5 %
  • 17июля
    Среда
    +14°
    +29°
    Практически безоблачно
    ВремяПогодаТемператураВлажностьДавлениеВетер, м/сВероятность осадков
    02:00Практически безоблачно+17°C69 %721 мм2.4 м/с5 %
    05:00Небольшая облачность+17°C59 %722 мм3.5 м/с5 %
    08:00Небольшая облачность+22°C54 %725 мм3.8 м/с5 %
    11:00Небольшая облачность+26°C48 %725 мм2.9 м/с5 %
    14:00Практически безоблачно+28°C41 %723 мм1.1 м/с5 %
    17:00Небольшая облачность+26°C51 %723 мм1.5 м/с5 %
    20:00Практически безоблачно+22°C67 %723 мм1.7 м/с5 %
    23:00Практически безоблачно+16°C76 %722 мм2.0 м/с5 %
  • 18июля
    Четверг
    +15°
    +29°
    Небольшая облачность
    ВремяПогодаТемператураВлажностьДавлениеВетер, м/сВероятность осадков
    02:00Небольшая облачность+17°C70 %721 мм2.2 м/с5 %
    05:00Облачно с прояснениями+15°C66 %722 мм2.4 м/с5 %
    08:00Облачно с прояснениями+22°C55 %725 мм3.0 м/с5 %
    11:00Небольшая облачность+27°C52 %725 мм4.0 м/с5 %
    14:00Небольшая облачность+28°C43 %723 мм1.9 м/с5 %
    17:00Ясно и безоблачно+26°C53 %723 мм2.8 м/с5 %
    20:00Ясно и безоблачно+21°C68 %723 мм0.6 м/с5 %
    23:00Ясно и безоблачно+18°C71 %722 мм1.7 м/с5 %
Мы используем cookies
Соглашаюсь